< Typhoon 198611 1986 Season Typhoon 198613 >
Typhoon 198612 (TIP)
General InformationTrack Information on Google MapsDetailed Wind InformationList of All Images || NewsDisaster Info.ResourceGoogle EarthGE AnimationAtom FeedGeoJSON
Detalied Best Track (Time Zone = UTC)
Year Month Day Hour Lat. Long. Pressure (hPa) Wind (kt) Class Image Chart
1986 8 10 06 17.3 160.2 1000 0 2 Image Chart
1986 8 10 12 17.4 159.8 1000 0 2 Image Chart
1986 8 10 18 17.5 159.5 1000 0 2 Image Chart
1986 8 11 00 17.6 159.2 1000 0 2 Image Chart
1986 8 11 06 17.8 158.8 1000 0 2 Image Chart
1986 8 11 12 18.0 158.5 1000 0 2 Image Chart
1986 8 11 18 18.2 158.3 1000 0 2 Image Chart
1986 8 12 00 18.3 158.0 1000 0 2 Image Chart
1986 8 12 06 18.5 157.8 1000 0 2 Image Chart
1986 8 12 12 18.6 157.5 1000 0 2 Image Chart
1986 8 12 18 18.7 157.3 1000 0 2 Image Chart
1986 8 13 00 18.7 157.0 998 0 2 Image Chart
1986 8 13 06 18.7 156.7 990 45 3 Image Chart
1986 8 13 12 18.7 156.4 985 45 3 Image Chart
1986 8 13 18 18.7 156.0 985 45 3 Image Chart
1986 8 14 00 18.5 155.9 990 45 3 Image Chart
1986 8 14 06 19.0 156.3 990 45 3 Image Chart
1986 8 14 12 19.5 156.4 985 50 4 Image Chart
1986 8 14 18 19.8 156.3 980 50 4 Image Chart
1986 8 15 00 20.4 156.2 980 55 4 Image Chart
1986 8 15 06 21.4 156.1 980 55 4 Image Chart
1986 8 15 12 22.6 155.9 980 55 4 Image Chart
1986 8 15 18 23.6 155.0 975 55 4 Image Chart
1986 8 16 00 24.4 153.8 970 60 4 Image Chart
1986 8 16 06 25.0 153.4 965 65 5 Image Chart
1986 8 16 12 25.4 153.1 965 70 5 Image Chart
1986 8 16 18 25.5 152.9 965 70 5 Image Chart
1986 8 17 00 25.6 152.8 970 70 5 Image Chart
1986 8 17 06 25.7 153.1 970 70 5 Image Chart
1986 8 17 12 25.6 154.3 975 65 5 Image Chart
1986 8 17 18 26.2 155.6 975 65 5 Image Chart
1986 8 18 00 27.1 156.9 975 65 5 Image Chart
1986 8 18 06 27.6 157.6 975 65 5 Image Chart
1986 8 18 12 27.3 158.2 975 60 4 Image Chart
1986 8 18 18 27.1 159.5 975 55 4 Image Chart
1986 8 19 00 27.1 161.1 975 55 4 Image Chart
1986 8 19 06 28.0 163.0 975 55 4 Image Chart
1986 8 19 12 28.9 163.9 975 55 4 Image Chart
1986 8 19 18 29.7 164.5 975 55 4 Image Chart
1986 8 20 00 30.5 164.8 975 55 4 Image Chart
1986 8 20 06 32.0 164.7 975 55 4 Image Chart
1986 8 20 12 33.5 164.3 975 55 4 Image Chart
1986 8 20 18 35.0 163.5 980 50 4 Image Chart
1986 8 21 00 36.7 162.5 980 45 3 Image Chart
1986 8 21 06 37.8 160.5 980 45 3 Image Chart
1986 8 21 12 36.9 159.1 985 45 3 Image Chart
1986 8 21 18 36.0 159.2 985 45 3 Image Chart
1986 8 22 00 36.0 158.5 990 45 3 Image Chart
1986 8 22 06 36.5 157.5 992 40 3 Image Chart
1986 8 22 12 36.5 156.0 994 35 3 Image Chart
1986 8 22 18 36.5 154.5 996 35 3 Image Chart
1986 8 23 00 37.0 153.0 1000 0 2 Image Chart
1986 8 23 06 37.7 151.1 1002 0 2 Image Chart
1986 8 23 12 38.5 149.5 1004 0 2 Image Chart
1986 8 23 18 39.0 148.0 1004 0 2 Image Chart
1986 8 24 00 40.0 147.0 1004 0 2 Image Chart
1986 8 24 06 40.5 146.5 1006 0 2 Image Chart
1986 8 24 12 41.5 146.0 1008 0 2 Image Chart
1986 8 24 18 43.0 147.0 1008 0 6 Image Chart
1986 8 25 00 44.0 148.0 1008 0 6 Image Chart
1986 8 25 06 45.0 149.0 1006 0 6 Image Chart
1986 8 25 12 46.0 151.0 1008 0 6 Image Chart
1986 8 25 18 47.0 153.0 1006 0 6 Image Chart
1986 8 26 00 47.0 156.0 1006 0 6 Image Chart
1986 8 26 06 46.0 158.0 1004 0 6 Image Chart
1986 8 26 12 45.0 160.0 1004 0 6 Image Chart
1986 8 26 18 45.0 163.0 1000 0 6 Image Chart
1986 8 27 00 45.0 166.0 1000 0 6 Image Chart
1986 8 27 06 45.0 169.0 998 0 6 Image Chart
1986 8 27 12 44.0 173.0 998 0 6 Image Chart
1986 8 27 18 43.0 176.0 996 0 6 Image Chart
1986 8 28 00 43.0 180.0 1000 0 6 Image Chart
Japan Meteorological Agency Best Track Data | Correction Date : 1992-10-21
< Typhoon 198611 1986 Season Typhoon 198613 >

Help